Sunday, March 24, 2019, 7:36 PM EDT
Back to Local

KMTP, Montauk Airport

Location: Montauk, NY, United States Lat: 41.067
Local Time: 7:36 PM EDT (23:36 GMT) Lon: -71.917
Time Zone: US/Eastern Elev: 6 ft

Show me the last for .
Show Coded

Time T Td Feel RH Dir Speed Gust Alt SLP Vis Weather Sky Remarks
2019-03-24 18:54 46 30 38 53 220° 9 22 30.03 30.03 0 None
2019-03-24 17:54 46 26 38 45 230° 12 22 30.02 30.02 0 None
2019-03-24 16:54 46 25 38 43 230° 10 23 30.05 30.04 0 None
2019-03-24 15:54 47 26 39 43 230° 10 21 30.06 30.06 0 None
2019-03-24 14:54 48 31 42 51 220° 12 17 30.08 30.07 0 None
2019-03-24 13:54 49 25 47 38 260° 5 - 30.10 30.10 0 6-hr Min Temp (2pm): 37.9°F
6-hr Max Temp (2pm): 48.9°F
2019-03-24 12:54 45 23 40 41 270° 9 - 30.13 30.13 0 None
2019-03-24 11:54 44 23 36 42 260° 10 18 30.15 30.15 0 None
2019-03-24 10:54 42 22 33 44 270° 13 21 30.16 30.16 0 None
2019-03-24 09:54 40 21 30 46 280° 13 20 30.17 30.17 0 None
2019-03-24 08:54 40 21 31 46 270° 12 18 30.16 30.16 0 None
2019-03-24 07:54 38 22 30 52 290° 12 - 30.14 30.14 0 6-hr Min Temp (8am): 36.0°F
6-hr Max Temp (8am): 37.9°F
2019-03-24 06:54 36 21 28 54 280° 12 - 30.13 30.13 0 None
2019-03-24 05:54 36 20 - 51 - - - 30.12 30.12 0 None
2019-03-24 04:54 36 19 28 49 290° 10 - 30.11 30.11 0 None
2019-03-24 03:54 37 18 26 45 290° 12 24 30.11 30.10 0 None
2019-03-24 02:54 37 15 29 40 310° 12 - 30.10 30.10 0 None
2019-03-24 01:54 37 16 26 41 310° 12 24 30.09 30.09 0 6-hr Min Temp (2am): 37.0°F
6-hr Max Temp (2am): 42.1°F
2019-03-24 00:54 37 15 26 40 300° 10 23 30.09 30.09 0 24-hr Min Temp (1am): 33.1°F
24-hr Max Temp (1am): 46.0°F
2019-03-23 23:54 38 15 26 38 300° 18 26 30.06 30.06 0 Peak wind: 31 mph (27 kts) from 300° at 13 min
2019-03-23 22:54 39 13 27 33 300° 17 31 30.04 30.03 0 Peak wind: 31 mph (27 kts) from 300° at 51 min
2019-03-23 21:54 39 19 28 44 310° 14 23 30.03 30.03 0 Peak wind: 33 mph (29 kts) from 310° at 57 min
2019-03-23 20:54 41 16 30 35 310° 17 29 29.99 29.99 0 Peak wind: 29 mph (26 kts) from 310° at 41 min
2019-03-23 19:54 42 22 32 44 300° 13 24 29.95 29.95 0 6-hr Min Temp (8pm): 41.0°F
6-hr Max Temp (8pm): 46.0°F

Support USWX by starting your Amazon purchase here.